Time;durP1;ratioP1;P1;durP2;ratioP2;P2;SDS_P1;SDS_P2;PMS_P1;PMS_P2;Temp;Humidity;BMP_temperature;BMP_pressure;BME280_temperature;BME280_humidity;BME280_pressure;Samples;Min_cycle;Max_cycle;Signal;HPM_P1;HPM_P2
2022/11/30 00:01:44;;;;;;;;;;;;;;;;;;4995113;28;20427;-92
2022/11/30 00:04:13;;;;;;;;;;;;;;;;;;4995047;28;20423;-92
2022/11/30 00:06:39;;;;;;;;;;;;;;;;;;4994781;28;19925;-92
2022/11/30 00:09:05;;;;;;;;;;;;;;;;;;5011548;28;20012;-93
2022/11/30 00:11:31;;;;;;;;;;;;;;;;;;4994762;28;20303;-92
2022/11/30 00:13:57;;;;;;;;;;;;;;;;;;4995275;28;20198;-92
2022/11/30 00:16:23;;;;;;;;;;;;;;;;;;4995421;28;19921;-92
2022/11/30 00:18:49;;;;;;;;;;;;;;;;;;5011738;28;19969;-93
2022/11/30 00:21:15;;;;;;;;;;;;;;;;;;5011291;28;20416;-92
2022/11/30 00:23:41;;;;;;;;;;;;;;;;;;4995290;28;19929;-92
2022/11/30 00:26:07;;;;;;;;;;;;;;;;;;4997006;28;20492;-93
2022/11/30 00:28:33;;;;;;;;;;;;;;;;;;4998143;28;20376;-93
2022/11/30 00:30:59;;;;;;;;;;;;;;;;;;4998692;28;20016;-93
2022/11/30 00:33:25;;;;;;;;;;;;;;;;;;4998295;28;19928;-93
2022/11/30 00:35:51;;;;;;;;;;;;;;;;;;4998300;28;19922;-92
2022/11/30 00:38:17;;;;;;;;;;;;;;;;;;5014129;28;19929;-92
2022/11/30 00:40:43;;;;;;;;;;;;;;;;;;4998199;28;19973;-92
2022/11/30 00:43:09;;;;;;;;;;;;;;;;;;4997894;28;19928;-91
2022/11/30 00:45:35;;;;;;;;;;;;;;;;;;4997702;28;19926;-92
2022/11/30 00:48:00;;;;;;;;;;;;;;;;;;4998533;28;19988;-92
2022/11/30 00:50:26;;;;;;;;;;;;;;;;;;5014088;28;20364;-92
2022/11/30 00:52:52;;;;;;;;;;;;;;;;;;4998127;28;20274;-92
2022/11/30 00:55:18;;;;;;;;;;;;;;;;;;4998054;28;20273;-92
2022/11/30 00:57:44;;;;;;;;;;;;;;;;;;5014573;28;20424;-92
2022/11/30 01:00:10;;;;;;;;;;;;;;;;;;4998327;28;20265;-93
2022/11/30 01:02:36;;;;;;;;;;;;;;;;;;5014048;28;20385;-92
2022/11/30 01:05:02;;;;;;;;;;;;;;;;;;4997550;28;19922;-92
2022/11/30 01:07:28;;;;;;;;;;;;;;;;;;4997622;28;19922;-92
2022/11/30 01:09:54;;;;;;;;;;;;;;;;;;4997508;28;20203;-92
2022/11/30 01:12:20;;;;;;;;;;;;;;;;;;5013585;28;20012;-92
2022/11/30 01:14:46;;;;;;;;;;;;;;;;;;4997368;28;19973;-92
2022/11/30 01:17:12;;;;;;;;;;;;;;;;;;4997313;28;19929;-92
2022/11/30 01:19:38;;;;;;;;;;;;;;;;;;5013610;28;19928;-92
2022/11/30 01:22:03;;;;;;;;;;;;;;;;;;4997129;28;20024;-92
2022/11/30 01:24:29;;;;;;;;;;;;;;;;;;5013700;28;20008;-92
2022/11/30 01:26:55;;;;;;;;;;;;;;;;;;4996901;28;20282;-92
2022/11/30 01:29:21;;;;;;;;;;;;;;;;;;5013509;28;20340;-92
2022/11/30 01:31:47;;;;;;;;;;;;;;;;;;5013411;28;19921;-92
2022/11/30 01:34:13;;;;;;;;;;;;;;;;;;5013589;28;20395;-92
2022/11/30 01:36:39;;;;;;;;;;;;;;;;;;4996866;28;19943;-92
2022/11/30 01:39:05;;;;;;;;;;;;;;;;;;4996971;28;20011;-92
2022/11/30 01:41:31;;;;;;;;;;;;;;;;;;4996849;28;20016;-92
2022/11/30 01:43:57;;;;;;;;;;;;;;;;;;4996806;28;20036;-92
2022/11/30 01:46:23;;;;;;;;;;;;;;;;;;4996862;28;20353;-92
2022/11/30 01:48:49;;;;;;;;;;;;;;;;;;4996619;28;19925;-92
2022/11/30 01:51:14;;;;;;;;;;;;;;;;;;5013027;28;19928;-92
2022/11/30 01:53:40;;;;;;;;;;;;;;;;;;4996898;28;19972;-92
2022/11/30 01:56:06;;;;;;;;;;;;;;;;;;4996605;28;19922;-94
2022/11/30 01:58:35;;;;;;;;;;;;;;;;;;4997413;28;19922;-93
2022/11/30 02:01:04;;;;;;;;;;;;;;;;;;4997063;28;20273;-93
2022/11/30 02:03:30;;;;;;;;;;;;;;;;;;5013163;28;19925;-92
2022/11/30 02:05:56;;;;;;;;;;;;;;;;;;4996643;28;19925;-93
2022/11/30 02:08:25;;;;;;;;;;;;;;;;;;4996793;28;20398;-93
2022/11/30 02:10:51;;;;;;;;;;;;;;;;;;4996560;28;19922;-93
2022/11/30 02:13:17;;;;;;;;;;;;;;;;;;4996481;28;19922;-92
2022/11/30 02:15:42;;;;;;;;;;;;;;;;;;4996444;28;19922;-92
2022/11/30 02:18:08;;;;;;;;;;;;;;;;;;5012769;28;19922;-93
2022/11/30 02:20:34;;;;;;;;;;;;;;;;;;4996608;28;19929;-93
2022/11/30 02:23:02;;;;;;;;;;;;;;;;;;4995893;28;19979;-92
2022/11/30 02:25:31;;;;;;;;;;;;;;;;;;4996346;28;20373;-93
2022/11/30 02:27:57;;;;;;;;;;;;;;;;;;5012447;28;19932;-93
2022/11/30 02:30:23;;;;;;;;;;;;;;;;;;4996095;28;20300;-93
2022/11/30 02:32:49;;;;;;;;;;;;;;;;;;4996204;28;19929;-92
2022/11/30 02:35:15;;;;;;;;;;;;;;;;;;4996150;28;19921;-93
2022/11/30 02:37:41;;;;;;;;;;;;;;;;;;5012135;28;20388;-93
2022/11/30 02:40:07;;;;;;;;;;;;;;;;;;4996393;28;19921;-94
2022/11/30 02:42:32;;;;;;;;;;;;;;;;;;4996472;28;20013;-93
2022/11/30 02:44:58;;;;;;;;;;;;;;;;;;4995704;28;20013;-93
2022/11/30 02:47:24;;;;;;;;;;;;;;;;;;4995479;28;19932;-93
2022/11/30 02:49:50;;;;;;;;;;;;;;;;;;5012240;28;19941;-93
2022/11/30 02:52:22;;;;;;;;;;;;;;;;;;4996042;28;20350;-94
2022/11/30 02:54:48;;;;;;;;;;;;;;;;;;4996226;28;20292;-93
2022/11/30 02:57:14;;;;;;;;;;;;;;;;;;4996155;28;20028;-92
2022/11/30 02:59:40;;;;;;;;;;;;;;;;;;4996038;28;19921;-92
2022/11/30 03:02:08;;;;;;;;;;;;;;;;;;4995985;28;19929;-91
2022/11/30 03:04:34;;;;;;;;;;;;;;;;;;4995388;28;19933;-94
2022/11/30 03:07:00;;;;;;;;;;;;;;;;;;4996592;28;19925;-96
2022/11/30 03:09:28;;;;;;;;;;;;;;;;;;4997492;28;22142;-93
2022/11/30 03:11:54;;;;;;;;;;;;;;;;;;5012019;28;19932;-93
2022/11/30 03:14:20;;;;;;;;;;;;;;;;;;4995491;28;19925;-93
2022/11/30 03:16:46;;;;;;;;;;;;;;;;;;4995327;28;20012;-92
2022/11/30 03:19:13;;;;;;;;;;;;;;;;;;4995333;28;20012;-93
2022/11/30 03:21:39;;;;;;;;;;;;;;;;;;5012230;28;19944;-93
2022/11/30 03:24:04;;;;;;;;;;;;;;;;;;4995968;28;20369;-93
2022/11/30 03:26:30;;;;;;;;;;;;;;;;;;4995364;28;20324;-93
2022/11/30 03:28:56;;;;;;;;;;;;;;;;;;4995301;28;19971;-93
2022/11/30 03:31:22;;;;;;;;;;;;;;;;;;4995780;28;20004;-93
2022/11/30 03:33:48;;;;;;;;;;;;;;;;;;4995160;28;20361;-93
2022/11/30 03:36:14;;;;;;;;;;;;;;;;;;4995041;28;19922;-94
2022/11/30 03:38:40;;;;;;;;;;;;;;;;;;4995433;28;19928;-93
2022/11/30 03:41:06;;;;;;;;;;;;;;;;;;5011840;28;19965;-93
2022/11/30 03:43:32;;;;;;;;;;;;;;;;;;5011448;28;19984;-93
2022/11/30 03:45:58;;;;;;;;;;;;;;;;;;5028381;28;19925;-93
2022/11/30 03:48:24;;;;;;;;;;;;;;;;;;5011666;28;19925;-94
2022/11/30 03:50:50;;;;;;;;;;;;;;;;;;4995030;28;19969;-92
2022/11/30 03:53:16;;;;;;;;;;;;;;;;;;5011721;28;19922;-93
2022/11/30 03:55:42;;;;;;;;;;;;;;;;;;4995415;28;19945;-93
2022/11/30 03:58:08;;;;;;;;;;;;;;;;;;4995428;28;19925;-94
2022/11/30 04:00:34;;;;;;;;;;;;;;;;;;5014522;28;19921;-93
2022/11/30 04:02:59;;;;;;;;;;;;;;;;;;4998993;28;19929;-93
2022/11/30 04:05:25;;;;;;;;;;;;;;;;;;5015396;28;20015;-93
2022/11/30 04:07:51;;;;;;;;;;;;;;;;;;4999121;28;19925;-92
2022/11/30 04:10:17;;;;;;;;;;;;;;;;;;4998920;28;19929;-92
2022/11/30 04:12:43;;;;;;;;;;;;;;;;;;5015178;28;20328;-93
2022/11/30 04:15:09;;;;;;;;;;;;;;;;;;4998592;28;19928;-93
2022/11/30 04:17:35;;;;;;;;;;;;;;;;;;4998469;28;20415;-93
2022/11/30 04:20:01;;;;;;;;;;;;;;;;;;4998538;28;19922;-93
2022/11/30 04:22:27;;;;;;;;;;;;;;;;;;4998316;28;19921;-93
2022/11/30 04:24:53;;;;;;;;;;;;;;;;;;4998653;28;19980;-93
2022/11/30 04:27:19;;;;;;;;;;;;;;;;;;4998429;28;19925;-93
2022/11/30 04:29:45;;;;;;;;;;;;;;;;;;4998288;28;20403;-93
2022/11/30 04:32:11;;;;;;;;;;;;;;;;;;4998156;28;19922;-93
2022/11/30 04:34:37;;;;;;;;;;;;;;;;;;5014818;28;20354;-93
2022/11/30 04:37:03;;;;;;;;;;;;;;;;;;5015076;28;19983;-93
2022/11/30 04:39:29;;;;;;;;;;;;;;;;;;4998558;28;19937;-92
2022/11/30 04:41:55;;;;;;;;;;;;;;;;;;4998268;28;19921;-93
2022/11/30 04:44:21;;;;;;;;;;;;;;;;;;4998216;28;19926;-92
2022/11/30 04:46:47;;;;;;;;;;;;;;;;;;4997873;28;20407;-92
2022/11/30 04:49:13;;;;;;;;;;;;;;;;;;4998336;28;19975;-93
2022/11/30 04:51:39;;;;;;;;;;;;;;;;;;4998005;28;19922;-93
2022/11/30 04:54:05;;;;;;;;;;;;;;;;;;4998369;28;20019;-93
2022/11/30 04:56:31;;;;;;;;;;;;;;;;;;5014211;28;19929;-92
2022/11/30 04:58:57;;;;;;;;;;;;;;;;;;4997868;28;19925;-92
2022/11/30 05:01:22;;;;;;;;;;;;;;;;;;5014130;28;20008;-93
2022/11/30 05:03:50;;;;;;;;;;;;;;;;;;4997755;28;19921;-92
2022/11/30 05:06:16;;;;;;;;;;;;;;;;;;4997703;28;20033;-92
2022/11/30 05:08:42;;;;;;;;;;;;;;;;;;4997638;28;19961;-92
2022/11/30 05:11:08;;;;;;;;;;;;;;;;;;5013028;28;19921;-92
2022/11/30 05:13:33;;;;;;;;;;;;;;;;;;5013885;28;20465;-93
2022/11/30 05:15:59;;;;;;;;;;;;;;;;;;4997214;28;20008;-92
2022/11/30 05:18:25;;;;;;;;;;;;;;;;;;5013602;28;19922;-93
2022/11/30 05:20:51;;;;;;;;;;;;;;;;;;4997132;28;19930;-92
2022/11/30 05:23:17;;;;;;;;;;;;;;;;;;5013866;28;19925;-92
2022/11/30 05:25:43;;;;;;;;;;;;;;;;;;4997319;28;20389;-93
2022/11/30 05:28:09;;;;;;;;;;;;;;;;;;4997257;28;19922;-92
2022/11/30 05:30:35;;;;;;;;;;;;;;;;;;5013586;28;19922;-93
2022/11/30 05:33:01;;;;;;;;;;;;;;;;;;4997134;28;20365;-92
2022/11/30 05:35:27;;;;;;;;;;;;;;;;;;5013412;28;20012;-92
2022/11/30 05:37:53;;;;;;;;;;;;;;;;;;4996822;28;19921;-93
2022/11/30 05:40:19;;;;;;;;;;;;;;;;;;4996958;28;20020;-93
2022/11/30 05:42:48;;;;;;;;;;;;;;;;;;5014018;28;20332;-92
2022/11/30 05:45:14;;;;;;;;;;;;;;;;;;4996680;28;19929;-92
2022/11/30 05:47:40;;;;;;;;;;;;;;;;;;4997132;28;19985;-92
2022/11/30 05:50:06;;;;;;;;;;;;;;;;;;4996879;28;19922;-92
2022/11/30 05:52:32;;;;;;;;;;;;;;;;;;4996648;28;19927;-93
2022/11/30 05:54:58;;;;;;;;;;;;;;;;;;4996886;28;19943;-93
2022/11/30 05:57:24;;;;;;;;;;;;;;;;;;5013402;28;19925;-92
2022/11/30 05:59:50;;;;;;;;;;;;;;;;;;5012997;28;20395;-92
2022/11/30 06:02:18;;;;;;;;;;;;;;;;;;4996703;28;19921;-92
2022/11/30 06:04:44;;;;;;;;;;;;;;;;;;4996622;28;19925;-92
2022/11/30 06:07:10;;;;;;;;;;;;;;;;;;4996379;28;20136;-93
2022/11/30 06:09:36;;;;;;;;;;;;;;;;;;4996462;28;19964;-93
2022/11/30 06:12:02;;;;;;;;;;;;;;;;;;4996275;28;19925;-92
2022/11/30 06:14:28;;;;;;;;;;;;;;;;;;4996287;28;19921;-92
2022/11/30 06:16:54;;;;;;;;;;;;;;;;;;4996267;28;19979;-92
2022/11/30 06:19:20;;;;;;;;;;;;;;;;;;5012886;28;19928;-92
2022/11/30 06:21:46;;;;;;;;;;;;;;;;;;5012439;28;20288;-92
2022/11/30 06:24:12;;;;;;;;;;;;;;;;;;4995208;28;19922;-92
2022/11/30 06:26:38;;;;;;;;;;;;;;;;;;4996241;28;20280;-92
2022/11/30 06:29:04;;;;;;;;;;;;;;;;;;4996191;28;20333;-93
2022/11/30 06:31:30;;;;;;;;;;;;;;;;;;4996253;28;19921;-92
2022/11/30 06:33:56;;;;;;;;;;;;;;;;;;4996209;28;20392;-93
2022/11/30 06:36:25;;;;;;;;;;;;;;;;;;4996678;28;19928;-92
2022/11/30 06:38:51;;;;;;;;;;;;;;;;;;4996314;28;19921;-92
2022/11/30 06:41:17;;;;;;;;;;;;;;;;;;5012587;28;20389;-93
2022/11/30 06:43:43;;;;;;;;;;;;;;;;;;4996159;28;20447;-93
2022/11/30 06:46:09;;;;;;;;;;;;;;;;;;4995839;28;20384;-92
2022/11/30 06:48:35;;;;;;;;;;;;;;;;;;4996410;28;19921;-92
2022/11/30 06:51:01;;;;;;;;;;;;;;;;;;4995744;28;20222;-93
2022/11/30 06:53:27;;;;;;;;;;;;;;;;;;4995737;28;19976;-93
2022/11/30 06:55:53;;;;;;;;;;;;;;;;;;4996102;28;20103;-93
2022/11/30 06:58:19;;;;;;;;;;;;;;;;;;4995735;28;19925;-93
2022/11/30 07:00:45;;;;;;;;;;;;;;;;;;4996077;28;20273;-92
2022/11/30 07:03:11;;;;;;;;;;;;;;;;;;5012377;28;19928;-92
2022/11/30 07:05:38;;;;;;;;;;;;;;;;;;5012047;28;19928;-93
2022/11/30 07:08:04;;;;;;;;;;;;;;;;;;4995614;28;19929;-93
2022/11/30 07:10:30;;;;;;;;;;;;;;;;;;4995340;28;19928;-92
2022/11/30 07:12:56;;;;;;;;;;;;;;;;;;4995583;28;19921;-92
2022/11/30 07:15:22;;;;;;;;;;;;;;;;;;4995837;28;19922;-92
2022/11/30 07:17:47;;;;;;;;;;;;;;;;;;4995683;28;20357;-92
2022/11/30 07:20:13;;;;;;;;;;;;;;;;;;5011752;28;19997;-93
2022/11/30 07:22:39;;;;;;;;;;;;;;;;;;4995570;28;19929;-92
2022/11/30 07:27:50;;;;;;;;;;;;;;;;;;5011810;28;20400;-92
2022/11/30 07:30:16;;;;;;;;;;;;;;;;;;4995366;28;19968;-92
2022/11/30 07:32:42;;;;;;;;;;;;;;;;;;5011909;28;19928;-93
2022/11/30 07:35:08;;;;;;;;;;;;;;;;;;4998127;28;19922;-92
2022/11/30 07:37:34;;;;;;;;;;;;;;;;;;5016090;28;20327;-93
2022/11/30 07:40:00;;;;;;;;;;;;;;;;;;4999672;28;19929;-93
2022/11/30 07:42:26;;;;;;;;;;;;;;;;;;4999494;28;20276;-92
2022/11/30 07:44:52;;;;;;;;;;;;;;;;;;4999059;28;19926;-92
2022/11/30 07:47:18;;;;;;;;;;;;;;;;;;4999124;28;19925;-93
2022/11/30 07:49:44;;;;;;;;;;;;;;;;;;4999100;28;19925;-93
2022/11/30 07:52:10;;;;;;;;;;;;;;;;;;4998934;28;19976;-96
2022/11/30 07:54:39;;;;;;;;;;;;;;;;;;4999574;28;20002;-94
2022/11/30 07:57:08;;;;;;;;;;;;;;;;;;5001809;28;19921;-96
2022/11/30 07:59:37;;;;;;;;;;;;;;;;;;5019855;28;19984;-93
2022/11/30 08:05:15;;;;;;;;;;;;;;;;;;5002297;28;19921;-95
2022/11/30 08:07:44;;;;;;;;;;;;;;;;;;5015318;28;19956;-95
2022/11/30 08:10:11;;;;;;;;;;;;;;;;;;4998869;28;19929;-94
2022/11/30 08:12:38;;;;;;;;;;;;;;;;;;4998684;28;19952;-94
2022/11/30 08:15:04;;;;;;;;;;;;;;;;;;4999137;28;19977;-94
2022/11/30 08:17:33;;;;;;;;;;;;;;;;;;4999853;28;19934;-93
2022/11/30 08:25:11;;;;;;;;;;;;;;;;;;5431963;23;19926;-93
2022/11/30 08:27:37;;;;;;;;;;;;;;;;;;4979824;28;20292;-95
2022/11/30 08:30:03;;;;;;;;;;;;;;;;;;4979553;28;19932;-93
2022/11/30 08:32:29;;;;;;;;;;;;;;;;;;4979923;28;19965;-95
2022/11/30 08:34:55;;;;;;;;;;;;;;;;;;4979565;28;19922;-93
2022/11/30 08:37:21;;;;;;;;;;;;;;;;;;4993190;28;19922;-95
2022/11/30 08:39:47;;;;;;;;;;;;;;;;;;4959778;28;19945;-95
2022/11/30 08:42:13;;;;;;;;;;;;;;;;;;4961103;28;19922;-96
2022/11/30 08:44:39;;;;;;;;;;;;;;;;;;4994761;28;19957;-96
2022/11/30 08:50:21;;;;;;;;;;;;;;;;;;5550156;23;19933;-95
2022/11/30 08:52:50;;;;;;;;;;;;;;;;;;4984692;28;19922;-96
2022/11/30 09:35:32;;;;;;;;;;;;;;;;;;5169763;23;20293;-94
2022/11/30 09:40:55;;;;;;;;;;;;;;;;;;5121604;23;19928;-96
2022/11/30 09:51:23;;;;;;;;;;;;;;;;;;5315166;23;19936;-96
2022/11/30 09:53:52;;;;;;;;;;;;;;;;;;5126197;23;20395;-94
2022/11/30 09:56:30;;;;;;;;;;;;;;;;;;5017725;28;19931;-95
2022/11/30 09:58:56;;;;;;;;;;;;;;;;;;5018383;28;19921;-94
2022/11/30 10:01:22;;;;;;;;;;;;;;;;;;5023018;28;20028;-95
2022/11/30 10:03:48;;;;;;;;;;;;;;;;;;5017844;28;19925;-93
2022/11/30 10:09:36;;;;;;;;;;;;;;;;;;5037514;28;20291;-96
2022/11/30 10:20:35;;;;;;;;;;;;;;;;;;5023225;28;19924;-96
2022/11/30 10:25:50;;;;;;;;;;;;;;;;;;5023043;28;20426;-96
2022/11/30 10:32:00;;;;;;;;;;;;;;;;;;;;;
2022/11/30 10:34:37;;;;;;;;;;;;;;;;;;4996375;28;20021;-95
2022/11/30 10:40:07;;;;;;;;;;;;;;;;;;5008865;28;19920;-94
2022/11/30 10:42:49;;;;;;;;;;;;;;;;;;;;;
2022/11/30 10:45:25;;;;;;;;;;;;;;;;;;4997014;28;19926;-94
2022/11/30 10:50:29;;;;;;;;;;;;;;;;;;5284194;23;19929;-94
2022/11/30 10:52:56;;;;;;;;;;;;;;;;;;5012794;28;20357;-92
2022/11/30 10:55:22;;;;;;;;;;;;;;;;;;4998782;28;19922;-93
2022/11/30 10:57:48;;;;;;;;;;;;;;;;;;4995878;28;19921;-92
2022/11/30 11:00:16;;;;;;;;;;;;;;;;;;4996103;28;19921;-93
2022/11/30 11:02:42;;;;;;;;;;;;;;;;;;4995737;28;19929;-93
2022/11/30 11:05:08;;;;;;;;;;;;;;;;;;4996146;28;19929;-93
2022/11/30 11:10:09;;;;;;;;;;;;;;;;;;5711856;23;20376;-91
2022/11/30 11:12:35;;;;;;;;;;;;;;;;;;4997545;28;20446;-94
2022/11/30 11:15:04;;;;;;;;;;;;;;;;;;4982608;28;19921;-93
2022/11/30 11:17:33;;;;;;;;;;;;;;;;;;4981128;28;20049;-94
2022/11/30 11:20:02;;;;;;;;;;;;;;;;;;4981874;28;19931;-95
2022/11/30 11:22:29;;;;;;;;;;;;;;;;;;4998183;28;20406;-94
2022/11/30 11:24:56;;;;;;;;;;;;;;;;;;4999269;28;19925;-91
2022/11/30 11:27:22;;;;;;;;;;;;;;;;;;4989250;28;19981;-91
2022/11/30 11:29:51;;;;;;;;;;;;;;;;;;5284490;23;19924;-93
2022/11/30 11:35:04;;;;;;;;;;;;;;;;;;5015562;28;19914;-95
2022/11/30 11:37:32;;;;;;;;;;;;;;;;;;4966061;28;19944;-92
2022/11/30 11:40:02;;;;;;;;;;;;;;;;;;4978944;28;19928;-94
2022/11/30 11:42:32;;;;;;;;;;;;;;;;;;5003226;28;19929;-95
2022/11/30 11:44:58;;;;;;;;;;;;;;;;;;4982555;28;19922;-93
2022/11/30 11:47:24;;;;;;;;;;;;;;;;;;4977459;28;20452;-93
2022/11/30 11:49:50;;;;;;;;;;;;;;;;;;4977278;28;20004;-93
2022/11/30 11:52:21;;;;;;;;;;;;;;;;;;4976709;28;20020;-93
2022/11/30 11:54:47;;;;;;;;;;;;;;;;;;4977101;28;19976;-92
2022/11/30 11:57:13;;;;;;;;;;;;;;;;;;4977275;28;19922;-94
2022/11/30 11:59:39;;;;;;;;;;;;;;;;;;4976324;28;19979;-94
2022/11/30 12:02:05;;;;;;;;;;;;;;;;;;4976250;28;19921;-90
2022/11/30 12:04:31;;;;;;;;;;;;;;;;;;4976680;28;19945;-94
2022/11/30 12:06:57;;;;;;;;;;;;;;;;;;4975939;28;19926;-92
2022/11/30 12:09:23;;;;;;;;;;;;;;;;;;4976095;28;19968;-91
2022/11/30 12:11:49;;;;;;;;;;;;;;;;;;4976326;28;19933;-92
2022/11/30 12:14:15;;;;;;;;;;;;;;;;;;4976138;28;19921;-92
2022/11/30 12:16:41;;;;;;;;;;;;;;;;;;4975538;28;19921;-92
2022/11/30 12:19:07;;;;;;;;;;;;;;;;;;4975478;28;19933;-91
2022/11/30 12:21:33;;;;;;;;;;;;;;;;;;4978537;28;19961;-93
2022/11/30 12:23:59;;;;;;;;;;;;;;;;;;4979262;28;20019;-92
2022/11/30 12:26:25;;;;;;;;;;;;;;;;;;4979110;28;19926;-92
2022/11/30 12:28:50;;;;;;;;;;;;;;;;;;4979832;28;20403;-93
2022/11/30 12:31:17;;;;;;;;;;;;;;;;;;4979543;28;20281;-92
2022/11/30 12:36:39;;;;;;;;;;;;;;;;;;4986808;28;19925;-93
2022/11/30 12:39:05;;;;;;;;;;;;;;;;;;4979441;28;20423;-92
2022/11/30 12:41:31;;;;;;;;;;;;;;;;;;4978989;28;19983;-93
2022/11/30 12:43:58;;;;;;;;;;;;;;;;;;4979076;28;19977;-92
2022/11/30 12:46:24;;;;;;;;;;;;;;;;;;4979215;28;19929;-91
2022/11/30 12:48:50;;;;;;;;;;;;;;;;;;4978960;28;19929;-92
2022/11/30 12:51:16;;;;;;;;;;;;;;;;;;4978777;28;19921;-92
2022/11/30 12:53:42;;;;;;;;;;;;;;;;;;4978434;28;19969;-92
2022/11/30 12:56:09;;;;;;;;;;;;;;;;;;4978945;28;19969;-92
2022/11/30 12:58:34;;;;;;;;;;;;;;;;;;4978200;28;20373;-92
2022/11/30 13:01:03;;;;;;;;;;;;;;;;;;4978628;28;19929;-92
2022/11/30 13:03:32;;;;;;;;;;;;;;;;;;4978635;28;20377;-96
2022/11/30 13:05:58;;;;;;;;;;;;;;;;;;4979120;28;19945;-95
2022/11/30 13:08:24;;;;;;;;;;;;;;;;;;4978560;28;20362;-91
2022/11/30 13:10:50;;;;;;;;;;;;;;;;;;4978259;28;19929;-92
2022/11/30 13:13:16;;;;;;;;;;;;;;;;;;4977949;28;19922;-91
2022/11/30 13:15:42;;;;;;;;;;;;;;;;;;4962200;28;19922;-94
2022/11/30 13:20:44;;;;;;;;;;;;;;;;;;5463468;23;20381;-91
2022/11/30 13:23:10;;;;;;;;;;;;;;;;;;4979024;28;19979;-92
2022/11/30 13:25:36;;;;;;;;;;;;;;;;;;4978117;28;20369;-92
2022/11/30 13:28:01;;;;;;;;;;;;;;;;;;4977904;28;20286;-93
2022/11/30 13:30:28;;;;;;;;;;;;;;;;;;4978333;28;20618;-93
2022/11/30 13:32:54;;;;;;;;;;;;;;;;;;4977537;28;19922;-93
2022/11/30 13:35:20;;;;;;;;;;;;;;;;;;4977978;28;19972;-93
2022/11/30 13:37:48;;;;;;;;;;;;;;;;;;4977934;28;19922;-93
2022/11/30 13:40:14;;;;;;;;;;;;;;;;;;4977599;28;20020;-92
2022/11/30 13:42:40;;;;;;;;;;;;;;;;;;4993893;28;19965;-93
2022/11/30 13:45:06;;;;;;;;;;;;;;;;;;4978334;28;20024;-93
2022/11/30 13:47:35;;;;;;;;;;;;;;;;;;4993853;28;20215;-93
2022/11/30 13:50:01;;;;;;;;;;;;;;;;;;4977722;28;19926;-93
2022/11/30 13:52:27;;;;;;;;;;;;;;;;;;4977505;28;20395;-92
2022/11/30 13:54:57;;;;;;;;;;;;;;;;;;4979875;28;19922;-94
2022/11/30 13:57:28;;;;;;;;;;;;;;;;;;5233052;23;20369;-88
2022/11/30 13:59:54;;;;;;;;;;;;;;;;;;4993213;28;19921;-89
2022/11/30 14:02:20;;;;;;;;;;;;;;;;;;4993070;28;19928;-88
2022/11/30 14:04:46;;;;;;;;;;;;;;;;;;4992953;28;19975;-88
2022/11/30 14:07:12;;;;;;;;;;;;;;;;;;4976837;28;20025;-90
2022/11/30 14:09:38;;;;;;;;;;;;;;;;;;4993023;28;20405;-89
2022/11/30 14:12:03;;;;;;;;;;;;;;;;;;4976752;28;20004;-92
2022/11/30 14:14:32;;;;;;;;;;;;;;;;;;4977578;28;20013;-93
2022/11/30 14:16:58;;;;;;;;;;;;;;;;;;4977101;28;20393;-93
2022/11/30 14:19:24;;;;;;;;;;;;;;;;;;4993851;28;20006;-94
2022/11/30 14:21:53;;;;;;;;;;;;;;;;;;4977038;28;20332;-92
2022/11/30 14:24:19;;;;;;;;;;;;;;;;;;4976614;28;19921;-91
2022/11/30 14:26:45;;;;;;;;;;;;;;;;;;4976886;28;19981;-92
2022/11/30 14:32:18;;;;;;;;;;;;;;;;;;4996608;28;19929;-95
2022/11/30 14:34:44;;;;;;;;;;;;;;;;;;4995110;28;19922;-96
2022/11/30 14:37:19;;;;;;;;;;;;;;;;;;4993421;28;19929;-93
2022/11/30 14:39:45;;;;;;;;;;;;;;;;;;4977167;28;19928;-93
2022/11/30 14:42:11;;;;;;;;;;;;;;;;;;4977370;28;19922;-93
2022/11/30 14:44:37;;;;;;;;;;;;;;;;;;4975637;28;19929;-92
2022/11/30 14:47:02;;;;;;;;;;;;;;;;;;4976318;28;19925;-93
2022/11/30 14:49:28;;;;;;;;;;;;;;;;;;4977291;28;19965;-94
2022/11/30 14:51:54;;;;;;;;;;;;;;;;;;4976668;28;19921;-94
2022/11/30 14:54:20;;;;;;;;;;;;;;;;;;4976508;28;19929;-93
2022/11/30 14:56:46;;;;;;;;;;;;;;;;;;4976850;28;19930;-94
2022/11/30 14:59:15;;;;;;;;;;;;;;;;;;4976546;28;19968;-93
2022/11/30 15:01:41;;;;;;;;;;;;;;;;;;4992877;28;20324;-94
2022/11/30 15:04:07;;;;;;;;;;;;;;;;;;4976566;28;19948;-94
2022/11/30 15:06:34;;;;;;;;;;;;;;;;;;4976101;28;20241;-96
2022/11/30 15:08:59;;;;;;;;;;;;;;;;;;4976689;28;19944;-95
2022/11/30 15:11:26;;;;;;;;;;;;;;;;;;4977124;28;19925;-94
2022/11/30 15:13:52;;;;;;;;;;;;;;;;;;4976975;28;20048;-93
2022/11/30 15:16:19;;;;;;;;;;;;;;;;;;4976537;28;19973;-94
2022/11/30 15:18:45;;;;;;;;;;;;;;;;;;4991545;28;19921;-93
2022/11/30 15:21:11;;;;;;;;;;;;;;;;;;4976716;28;20028;-93
2022/11/30 15:23:40;;;;;;;;;;;;;;;;;;4991699;28;20008;-90
2022/11/30 15:26:09;;;;;;;;;;;;;;;;;;4971378;28;20025;-91
2022/11/30 15:28:35;;;;;;;;;;;;;;;;;;4956469;28;20009;-91
2022/11/30 15:31:01;;;;;;;;;;;;;;;;;;4957026;28;19922;-93
2022/11/30 15:33:27;;;;;;;;;;;;;;;;;;4956649;28;19929;-93
2022/11/30 15:35:53;;;;;;;;;;;;;;;;;;4956587;28;19930;-93
2022/11/30 15:38:28;;;;;;;;;;;;;;;;;;4958049;28;19929;-92
2022/11/30 15:40:56;;;;;;;;;;;;;;;;;;4956854;28;19995;-90
2022/11/30 15:43:22;;;;;;;;;;;;;;;;;;4956264;28;20519;-92
2022/11/30 15:45:50;;;;;;;;;;;;;;;;;;4956298;28;19962;-91
2022/11/30 15:48:16;;;;;;;;;;;;;;;;;;4956441;28;19934;-90
2022/11/30 15:50:42;;;;;;;;;;;;;;;;;;4956492;28;19981;-90
2022/11/30 15:53:08;;;;;;;;;;;;;;;;;;4956182;28;19929;-90
2022/11/30 15:55:33;;;;;;;;;;;;;;;;;;4973829;28;19930;-89
2022/11/30 15:57:59;;;;;;;;;;;;;;;;;;4960084;28;19941;-89
2022/11/30 16:00:30;;;;;;;;;;;;;;;;;;4960439;28;19922;-94
2022/11/30 16:02:56;;;;;;;;;;;;;;;;;;4962940;28;19926;-93
2022/11/30 16:05:25;;;;;;;;;;;;;;;;;;4961865;28;19961;-92
2022/11/30 16:07:52;;;;;;;;;;;;;;;;;;4976328;28;19926;-93
2022/11/30 16:10:18;;;;;;;;;;;;;;;;;;4960455;28;20303;-93
2022/11/30 16:12:44;;;;;;;;;;;;;;;;;;4960730;28;19929;-93
2022/11/30 16:15:24;;;;;;;;;;;;;;;;;;4963473;28;20333;-94
2022/11/30 16:17:50;;;;;;;;;;;;;;;;;;4960176;28;19949;-94
2022/11/30 16:20:16;;;;;;;;;;;;;;;;;;4960041;28;20087;-93
2022/11/30 16:22:44;;;;;;;;;;;;;;;;;;4963200;28;19929;-93
2022/11/30 16:25:10;;;;;;;;;;;;;;;;;;4976418;28;20384;-93
2022/11/30 16:27:46;;;;;;;;;;;;;;;;;;4961437;28;20369;-93
2022/11/30 16:30:12;;;;;;;;;;;;;;;;;;4959574;28;20029;-90
2022/11/30 16:32:38;;;;;;;;;;;;;;;;;;4959661;28;20405;-89
2022/11/30 16:35:04;;;;;;;;;;;;;;;;;;4975437;28;19922;-89
2022/11/30 16:37:30;;;;;;;;;;;;;;;;;;4959582;28;19926;-89
2022/11/30 16:39:56;;;;;;;;;;;;;;;;;;4959028;28;19981;-89
2022/11/30 16:42:21;;;;;;;;;;;;;;;;;;4959337;28;19945;-89
2022/11/30 16:44:47;;;;;;;;;;;;;;;;;;4975424;28;19922;-89
2022/11/30 16:47:13;;;;;;;;;;;;;;;;;;4959030;28;19941;-89
2022/11/30 16:49:39;;;;;;;;;;;;;;;;;;4958868;28;20407;-89
2022/11/30 16:52:05;;;;;;;;;;;;;;;;;;4958898;28;19922;-89
2022/11/30 16:54:31;;;;;;;;;;;;;;;;;;4959325;28;20412;-92
2022/11/30 16:56:57;;;;;;;;;;;;;;;;;;4959108;28;20441;-88
2022/11/30 16:59:23;;;;;;;;;;;;;;;;;;4958973;28;19923;-89
2022/11/30 17:01:51;;;;;;;;;;;;;;;;;;4958713;28;19922;-90
2022/11/30 17:04:17;;;;;;;;;;;;;;;;;;4959013;28;20388;-89
2022/11/30 17:06:43;;;;;;;;;;;;;;;;;;4957937;28;19927;-89
2022/11/30 17:09:09;;;;;;;;;;;;;;;;;;4958881;28;19929;-90
2022/11/30 17:11:35;;;;;;;;;;;;;;;;;;4958430;28;19922;-92
2022/11/30 17:14:01;;;;;;;;;;;;;;;;;;4958275;28;19969;-91
2022/11/30 17:16:27;;;;;;;;;;;;;;;;;;4958308;28;19922;-91
2022/11/30 17:18:53;;;;;;;;;;;;;;;;;;4958776;28;20278;-91
2022/11/30 17:21:19;;;;;;;;;;;;;;;;;;4961247;28;19955;-94
2022/11/30 17:23:57;;;;;;;;;;;;;;;;;;4960765;28;19929;-95
2022/11/30 17:26:23;;;;;;;;;;;;;;;;;;4959581;28;19922;-91
2022/11/30 17:28:49;;;;;;;;;;;;;;;;;;4959297;28;19949;-91
2022/11/30 17:31:15;;;;;;;;;;;;;;;;;;4958674;28;19922;-92
2022/11/30 17:33:41;;;;;;;;;;;;;;;;;;4959363;28;19929;-89
2022/11/30 17:36:07;;;;;;;;;;;;;;;;;;4958903;28;19926;-90
2022/11/30 17:38:33;;;;;;;;;;;;;;;;;;4958560;28;19922;-90
2022/11/30 17:40:59;;;;;;;;;;;;;;;;;;4959730;28;19945;-90
2022/11/30 17:43:25;;;;;;;;;;;;;;;;;;4958331;28;20330;-90
2022/11/30 17:45:51;;;;;;;;;;;;;;;;;;4974953;28;19977;-90
2022/11/30 17:48:17;;;;;;;;;;;;;;;;;;4974289;28;19973;-89
2022/11/30 17:50:46;;;;;;;;;;;;;;;;;;4959760;28;19988;-92
2022/11/30 17:53:12;;;;;;;;;;;;;;;;;;4957978;28;19949;-92
2022/11/30 17:55:38;;;;;;;;;;;;;;;;;;4958269;28;20377;-91
2022/11/30 17:58:04;;;;;;;;;;;;;;;;;;4957629;28;19926;-90
2022/11/30 18:00:30;;;;;;;;;;;;;;;;;;4958190;28;19922;-92
2022/11/30 18:02:56;;;;;;;;;;;;;;;;;;4957707;28;19969;-91
2022/11/30 18:05:22;;;;;;;;;;;;;;;;;;4957785;28;19929;-92
2022/11/30 18:07:49;;;;;;;;;;;;;;;;;;4957234;28;19961;-93
2022/11/30 18:10:15;;;;;;;;;;;;;;;;;;4957367;28;19980;-91
2022/11/30 18:12:41;;;;;;;;;;;;;;;;;;4957836;28;20373;-95
2022/11/30 18:15:07;;;;;;;;;;;;;;;;;;4958033;28;20310;-94
2022/11/30 18:17:36;;;;;;;;;;;;;;;;;;4957950;28;19926;-90
2022/11/30 18:20:02;;;;;;;;;;;;;;;;;;4958116;28;19933;-92
2022/11/30 18:22:28;;;;;;;;;;;;;;;;;;4957076;28;19921;-90
2022/11/30 18:24:54;;;;;;;;;;;;;;;;;;4973202;28;19925;-90